logo
Search for airport 
image banner adimage banner adimage banner ad
image banner ad

YCRN - Cranbourn

Located in Georgetown, Australia

ICAO - YCRN, IATA -

Data provided by Airmate  

General information

Coordinates: S41°9'41" E147°0'53"
Elevation is 345 feet MSL.
Magnetic variation is 14° East
View others Airports in Tasmania

Operational data

Special qualification required
Current time UTC:
Current local time:
Weather at : YMLT - Launceston ( 46 km )
METAR: YMLT 131602Z AUTO 35007KT 4800 BR NCD 09/09 Q1019 RF00.0/000.2
TAF: TAF AMD YMLT 131558Z 1315/1412 33006KT CAVOK FM132100 33008KT 9999 SCT015 FM140000 33012KT 9999 SCT040 FM141000 34008KT CAVOK PROB30 1316/1322 0300 FG
View NOTAMs / SUP AIP / TFR affecting this airport [VIEW]
Communications frequencies: [VIEW]

Runways:

RWY identifierQFULength (ft)Width (ft)SurfaceLDA (ft)
14R2231102UNK
32L2231102UNK
14L223156UNK
32R223156UNK
31327°211756GRAS
13147°211756GRAS

Airport contact information

Address: Georgetown Australia

Satellite view of YCRN